sensor_id;sensor_type;location;lat;lon;timestamp;pressure;altitude;pressure_sealevel;temperature;humidity
14885;BME280;7534;50.762;7.000;2022-10-30T00:01:30;150500.03;;;16.58;88.84
14885;BME280;7534;50.762;7.000;2022-10-30T00:03:56;150563.22;;;16.82;86.44
14885;BME280;7534;50.762;7.000;2022-10-30T00:06:22;150594.81;;;16.94;85.49
14885;BME280;7534;50.762;7.000;2022-10-30T00:08:48;150590.88;;;16.93;85.96
14885;BME280;7534;50.762;7.000;2022-10-30T00:11:13;150597.41;;;16.95;85.73
14885;BME280;7534;50.762;7.000;2022-10-30T00:13:41;150606.66;;;16.99;85.69
14885;BME280;7534;50.762;7.000;2022-10-30T00:16:09;150594.81;;;16.94;86.05
14885;BME280;7534;50.762;7.000;2022-10-30T00:18:38;150601.38;;;16.97;86.10
14885;BME280;7534;50.762;7.000;2022-10-30T00:21:13;150594.81;;;16.94;86.56
14885;BME280;7534;50.762;7.000;2022-10-30T00:23:49;150563.22;;;16.82;87.36
14885;BME280;7534;50.762;7.000;2022-10-30T00:26:15;150542.16;;;16.74;88.18
14885;BME280;7534;50.762;7.000;2022-10-30T00:28:41;150496.06;;;16.56;89.60
14885;BME280;7534;50.762;7.000;2022-10-30T00:31:07;150481.63;;;16.51;90.14
14885;BME280;7534;50.762;7.000;2022-10-30T00:33:34;150500.03;;;16.58;89.80
14885;BME280;7534;50.762;7.000;2022-10-30T00:36:00;150534.25;;;16.71;89.02
14885;BME280;7534;50.762;7.000;2022-10-30T00:38:25;150556.63;;;16.79;88.36
14885;BME280;7534;50.762;7.000;2022-10-30T00:40:51;150564.53;;;16.83;87.96
14885;BME280;7534;50.762;7.000;2022-10-30T00:43:39;150563.22;;;16.82;88.78
14885;BME280;7534;50.762;7.000;2022-10-30T00:49:03;150534.25;;;16.71;89.52
14885;BME280;7534;50.762;7.000;2022-10-30T00:51:37;150526.41;;;16.68;89.49
14885;BME280;7534;50.762;7.000;2022-10-30T00:54:06;150506.63;;;16.60;90.01
14885;BME280;7534;50.762;7.000;2022-10-30T00:56:32;150465.84;;;16.45;90.50
14885;BME280;7534;50.762;7.000;2022-10-30T00:59:06;150447.44;;;16.37;90.97
14885;BME280;7534;50.762;7.000;2022-10-30T01:01:37;150444.81;;;16.36;90.92
14885;BME280;7534;50.762;7.000;2022-10-30T01:04:05;150426.41;;;16.29;90.86
14885;BME280;7534;50.762;7.000;2022-10-30T01:06:36;150415.84;;;16.25;91.11
14885;BME280;7534;50.762;7.000;2022-10-30T01:09:03;150402.72;;;16.20;91.39
14885;BME280;7534;50.762;7.000;2022-10-30T01:11:30;150386.91;;;16.14;91.83
14885;BME280;7534;50.762;7.000;2022-10-30T01:14:02;150363.28;;;16.05;92.45
14885;BME280;7534;50.762;7.000;2022-10-30T01:23:04;150285.69;;;15.75;94.02
14885;BME280;7534;50.762;7.000;2022-10-30T01:26:13;150252.84;;;15.62;94.51
14885;BME280;7534;50.762;7.000;2022-10-30T01:29:11;150216.00;;;15.48;95.11
14885;BME280;7534;50.762;7.000;2022-10-30T01:35:09;150150.28;;;15.23;96.73
14885;BME280;7534;50.762;7.000;2022-10-30T01:37:49;150124.00;;;15.13;97.09
14885;BME280;7534;50.762;7.000;2022-10-30T01:40:17;150112.16;;;15.08;97.67
14885;BME280;7534;50.762;7.000;2022-10-30T01:42:52;150085.91;;;14.98;98.87
14885;BME280;7534;50.762;7.000;2022-10-30T01:46:03;150071.44;;;14.93;100.00
14885;BME280;7534;50.762;7.000;2022-10-30T01:49:04;150038.63;;;14.80;100.00
14885;BME280;7534;50.762;7.000;2022-10-30T01:57:39;150033.34;;;14.78;100.00
14885;BME280;7534;50.762;7.000;2022-10-30T02:00:11;150012.34;;;14.70;100.00
14885;BME280;7534;50.762;7.000;2022-10-30T02:02:38;149980.84;;;14.58;100.00
14885;BME280;7534;50.762;7.000;2022-10-30T02:05:06;149999.22;;;14.65;100.00
14885;BME280;7534;50.762;7.000;2022-10-30T02:07:34;150000.53;;;14.65;100.00
14885;BME280;7534;50.762;7.000;2022-10-30T02:10:01;149990.00;;;14.61;100.00
14885;BME280;7534;50.762;7.000;2022-10-30T02:12:27;149980.84;;;14.58;100.00
14885;BME280;7534;50.762;7.000;2022-10-30T02:14:59;149942.78;;;14.43;100.00
14885;BME280;7534;50.762;7.000;2022-10-30T02:17:26;149904.59;;;14.28;100.00
14885;BME280;7534;50.762;7.000;2022-10-30T02:19:51;149916.44;;;14.33;100.00
14885;BME280;7534;50.762;7.000;2022-10-30T02:22:17;149909.88;;;14.30;100.00
14885;BME280;7534;50.762;7.000;2022-10-30T02:24:44;149896.75;;;14.25;100.00
14885;BME280;7534;50.762;7.000;2022-10-30T02:27:10;149875.75;;;14.17;100.00
14885;BME280;7534;50.762;7.000;2022-10-30T02:29:36;149857.38;;;14.10;100.00
14885;BME280;7534;50.762;7.000;2022-10-30T02:32:02;149821.91;;;13.96;100.00
14885;BME280;7534;50.762;7.000;2022-10-30T02:34:28;149781.22;;;13.81;100.00
14885;BME280;7534;50.762;7.000;2022-10-30T02:36:53;149782.53;;;13.81;100.00
14885;BME280;7534;50.762;7.000;2022-10-30T02:39:19;149779.91;;;13.80;100.00
14885;BME280;7534;50.762;7.000;2022-10-30T02:41:47;149781.22;;;13.81;100.00
14885;BME280;7534;50.762;7.000;2022-10-30T02:44:12;149768.13;;;13.75;100.00
14885;BME280;7534;50.762;7.000;2022-10-30T02:46:39;149731.41;;;13.61;100.00
14885;BME280;7534;50.762;7.000;2022-10-30T02:49:04;149741.88;;;13.65;100.00
14885;BME280;7534;50.762;7.000;2022-10-30T02:51:30;149774.69;;;13.78;100.00
14885;BME280;7534;50.762;7.000;2022-10-30T02:53:58;149778.59;;;13.80;100.00
14885;BME280;7534;50.762;7.000;2022-10-30T02:56:35;149777.28;;;13.79;100.00
14885;BME280;7534;50.762;7.000;2022-10-30T02:59:05;149735.28;;;13.63;100.00
14885;BME280;7534;50.762;7.000;2022-10-30T03:01:30;149739.25;;;13.64;100.00
14885;BME280;7534;50.762;7.000;2022-10-30T03:03:56;149719.56;;;13.57;100.00
14885;BME280;7534;50.762;7.000;2022-10-30T03:06:22;149739.25;;;13.64;100.00
14885;BME280;7534;50.762;7.000;2022-10-30T03:08:49;149731.41;;;13.61;100.00
14885;BME280;7534;50.762;7.000;2022-10-30T03:11:17;149714.28;;;13.55;100.00
14885;BME280;7534;50.762;7.000;2022-10-30T03:13:45;149698.56;;;13.49;100.00
14885;BME280;7534;50.762;7.000;2022-10-30T03:16:24;149712.97;;;13.54;100.00
14885;BME280;7534;50.762;7.000;2022-10-30T03:18:51;149709.09;;;13.53;100.00
14885;BME280;7534;50.762;7.000;2022-10-30T03:21:20;149698.56;;;13.49;100.00
14885;BME280;7534;50.762;7.000;2022-10-30T03:23:46;149680.22;;;13.42;100.00
14885;BME280;7534;50.762;7.000;2022-10-30T03:26:12;149673.63;;;13.39;100.00
14885;BME280;7534;50.762;7.000;2022-10-30T03:28:38;149665.78;;;13.36;100.00
14885;BME280;7534;50.762;7.000;2022-10-30T03:31:07;149659.22;;;13.33;100.00
14885;BME280;7534;50.762;7.000;2022-10-30T03:33:35;149618.56;;;13.18;100.00
14885;BME280;7534;50.762;7.000;2022-10-30T03:36:02;149621.19;;;13.19;100.00
14885;BME280;7534;50.762;7.000;2022-10-30T03:38:28;149623.81;;;13.20;100.00
14885;BME280;7534;50.762;7.000;2022-10-30T03:40:54;149622.50;;;13.19;100.00
14885;BME280;7534;50.762;7.000;2022-10-30T03:43:21;149606.78;;;13.13;100.00
14885;BME280;7534;50.762;7.000;2022-10-30T03:45:49;149600.16;;;13.11;100.00
14885;BME280;7534;50.762;7.000;2022-10-30T03:48:17;149590.94;;;13.07;100.00
14885;BME280;7534;50.762;7.000;2022-10-30T03:50:44;149548.97;;;12.91;100.00
14885;BME280;7534;50.762;7.000;2022-10-30T03:53:11;149513.59;;;12.77;100.00
14885;BME280;7534;50.762;7.000;2022-10-30T03:55:37;149503.06;;;12.73;100.00
14885;BME280;7534;50.762;7.000;2022-10-30T03:58:03;149531.94;;;12.84;100.00
14885;BME280;7534;50.762;7.000;2022-10-30T04:00:29;149529.31;;;12.83;100.00
14885;BME280;7534;50.762;7.000;2022-10-30T04:02:55;149538.50;;;12.87;100.00
14885;BME280;7534;50.762;7.000;2022-10-30T04:05:23;149534.56;;;12.85;100.00
14885;BME280;7534;50.762;7.000;2022-10-30T04:07:58;149522.78;;;12.81;100.00
14885;BME280;7534;50.762;7.000;2022-10-30T04:10:25;149504.41;;;12.74;100.00
14885;BME280;7534;50.762;7.000;2022-10-30T04:12:52;149450.66;;;12.53;100.00
14885;BME280;7534;50.762;7.000;2022-10-30T04:15:19;149470.31;;;12.60;100.00
14885;BME280;7534;50.762;7.000;2022-10-30T04:17:51;149492.63;;;12.69;100.00
14885;BME280;7534;50.762;7.000;2022-10-30T04:20:18;149491.31;;;12.69;100.00
14885;BME280;7534;50.762;7.000;2022-10-30T04:22:44;149487.34;;;12.67;100.00
14885;BME280;7534;50.762;7.000;2022-10-30T04:25:11;149482.09;;;12.65;100.00
14885;BME280;7534;50.762;7.000;2022-10-30T04:27:41;149472.94;;;12.61;100.00
14885;BME280;7534;50.762;7.000;2022-10-30T04:30:11;149475.59;;;12.63;100.00
14885;BME280;7534;50.762;7.000;2022-10-30T04:32:48;149469.00;;;12.60;100.00
14885;BME280;7534;50.762;7.000;2022-10-30T04:35:16;149455.91;;;12.55;100.00
14885;BME280;7534;50.762;7.000;2022-10-30T04:38:09;149449.34;;;12.52;100.00
14885;BME280;7534;50.762;7.000;2022-10-30T04:40:38;149437.56;;;12.48;100.00
14885;BME280;7534;50.762;7.000;2022-10-30T04:43:06;149403.47;;;12.35;100.00
14885;BME280;7534;50.762;7.000;2022-10-30T04:45:32;149410.03;;;12.37;100.00
14885;BME280;7534;50.762;7.000;2022-10-30T04:48:13;149423.13;;;12.42;100.00
14885;BME280;7534;50.762;7.000;2022-10-30T04:50:40;149424.44;;;12.43;100.00
14885;BME280;7534;50.762;7.000;2022-10-30T04:53:11;149417.91;;;12.40;100.00
14885;BME280;7534;50.762;7.000;2022-10-30T04:55:37;149406.09;;;12.36;100.00
14885;BME280;7534;50.762;7.000;2022-10-30T04:58:03;149402.16;;;12.34;100.00
14885;BME280;7534;50.762;7.000;2022-10-30T05:00:30;149395.63;;;12.32;100.00
14885;BME280;7534;50.762;7.000;2022-10-30T05:03:00;149373.34;;;12.23;100.00
14885;BME280;7534;50.762;7.000;2022-10-30T05:05:30;149372.03;;;12.22;100.00
14885;BME280;7534;50.762;7.000;2022-10-30T05:07:57;149366.78;;;12.20;100.00
14885;BME280;7534;50.762;7.000;2022-10-30T05:10:22;149364.16;;;12.19;100.00
14885;BME280;7534;50.762;7.000;2022-10-30T05:12:51;149356.25;;;12.16;100.00
14885;BME280;7534;50.762;7.000;2022-10-30T05:15:18;149339.25;;;12.10;100.00
14885;BME280;7534;50.762;7.000;2022-10-30T05:17:44;149341.88;;;12.11;100.00
14885;BME280;7534;50.762;7.000;2022-10-30T05:20:10;149334.03;;;12.08;100.00
14885;BME280;7534;50.762;7.000;2022-10-30T05:22:36;149314.34;;;12.00;100.00
14885;BME280;7534;50.762;7.000;2022-10-30T05:25:02;149315.66;;;12.01;100.00
14885;BME280;7534;50.762;7.000;2022-10-30T05:27:28;149307.81;;;11.98;100.00
14885;BME280;7534;50.762;7.000;2022-10-30T05:29:53;149311.75;;;11.99;100.00
14885;BME280;7534;50.762;7.000;2022-10-30T05:32:19;149305.19;;;11.97;100.00
14885;BME280;7534;50.762;7.000;2022-10-30T05:34:45;149315.66;;;12.01;100.00
14885;BME280;7534;50.762;7.000;2022-10-30T05:37:10;149313.06;;;12.00;100.00
14885;BME280;7534;50.762;7.000;2022-10-30T05:39:36;149293.38;;;11.92;100.00
14885;BME280;7534;50.762;7.000;2022-10-30T05:42:02;149277.66;;;11.86;100.00
14885;BME280;7534;50.762;7.000;2022-10-30T05:44:28;149250.19;;;11.75;100.00
14885;BME280;7534;50.762;7.000;2022-10-30T05:46:53;149243.56;;;11.73;100.00
14885;BME280;7534;50.762;7.000;2022-10-30T05:49:19;149297.31;;;11.94;100.00
14885;BME280;7534;50.762;7.000;2022-10-30T05:51:45;149326.16;;;12.05;100.00
14885;BME280;7534;50.762;7.000;2022-10-30T05:54:10;149337.94;;;12.09;100.00
14885;BME280;7534;50.762;7.000;2022-10-30T05:56:36;149331.41;;;12.07;100.00
14885;BME280;7534;50.762;7.000;2022-10-30T05:59:02;149311.75;;;11.99;100.00
14885;BME280;7534;50.762;7.000;2022-10-30T06:01:28;149297.31;;;11.94;100.00
14885;BME280;7534;50.762;7.000;2022-10-30T06:03:53;149298.63;;;11.94;100.00
14885;BME280;7534;50.762;7.000;2022-10-30T06:06:19;149297.31;;;11.94;100.00
14885;BME280;7534;50.762;7.000;2022-10-30T06:08:45;149297.31;;;11.94;100.00
14885;BME280;7534;50.762;7.000;2022-10-30T06:11:10;149302.56;;;11.96;100.00
14885;BME280;7534;50.762;7.000;2022-10-30T06:13:36;149328.78;;;12.06;100.00
14885;BME280;7534;50.762;7.000;2022-10-30T06:16:02;149344.50;;;12.12;100.00
14885;BME280;7534;50.762;7.000;2022-10-30T06:18:27;149290.78;;;11.91;100.00
14885;BME280;7534;50.762;7.000;2022-10-30T06:20:54;149301.25;;;11.95;100.00
14885;BME280;7534;50.762;7.000;2022-10-30T06:23:20;149343.19;;;12.11;100.00
14885;BME280;7534;50.762;7.000;2022-10-30T06:25:46;149349.75;;;12.14;100.00
14885;BME280;7534;50.762;7.000;2022-10-30T06:28:12;149370.72;;;12.22;100.00
14885;BME280;7534;50.762;7.000;2022-10-30T06:30:38;149389.06;;;12.29;100.00
14885;BME280;7534;50.762;7.000;2022-10-30T06:33:05;149415.28;;;12.39;100.00
14885;BME280;7534;50.762;7.000;2022-10-30T06:35:32;149424.44;;;12.43;100.00
14885;BME280;7534;50.762;7.000;2022-10-30T06:37:58;149462.44;;;12.57;100.00
14885;BME280;7534;50.762;7.000;2022-10-30T06:40:28;149448.03;;;12.52;100.00
14885;BME280;7534;50.762;7.000;2022-10-30T06:42:56;149462.44;;;12.57;100.00
14885;BME280;7534;50.762;7.000;2022-10-30T06:45:23;149487.34;;;12.67;100.00
14885;BME280;7534;50.762;7.000;2022-10-30T06:47:49;149487.34;;;12.67;100.00
14885;BME280;7534;50.762;7.000;2022-10-30T06:50:19;149504.41;;;12.74;100.00
14885;BME280;7534;50.762;7.000;2022-10-30T06:52:45;149470.31;;;12.60;100.00
14885;BME280;7534;50.762;7.000;2022-10-30T06:55:11;149478.22;;;12.64;100.00
14885;BME280;7534;50.762;7.000;2022-10-30T06:57:37;149504.41;;;12.74;100.00
14885;BME280;7534;50.762;7.000;2022-10-30T07:00:06;149569.97;;;12.99;100.00
14885;BME280;7534;50.762;7.000;2022-10-30T07:02:32;149664.47;;;13.35;100.00
14885;BME280;7534;50.762;7.000;2022-10-30T07:04:58;149795.69;;;13.86;100.00
14885;BME280;7534;50.762;7.000;2022-10-30T07:07:24;149948.00;;;14.45;100.00
14885;BME280;7534;50.762;7.000;2022-10-30T07:09:50;150110.88;;;15.08;100.00
14885;BME280;7534;50.762;7.000;2022-10-30T07:12:15;150280.41;;;15.73;98.22
14885;BME280;7534;50.762;7.000;2022-10-30T07:14:41;150442.16;;;16.35;90.46
14885;BME280;7534;50.762;7.000;2022-10-30T07:17:08;150634.28;;;17.09;85.22
14885;BME280;7534;50.762;7.000;2022-10-30T07:19:33;150839.69;;;17.88;80.20
14885;BME280;7534;50.762;7.000;2022-10-30T07:22:07;151068.91;;;18.77;73.09
14885;BME280;7534;50.762;7.000;2022-10-30T07:24:35;151279.88;;;19.58;68.05
14885;BME280;7534;50.762;7.000;2022-10-30T07:27:02;151440.75;;;20.19;65.02
14885;BME280;7534;50.762;7.000;2022-10-30T07:29:28;151583.34;;;20.74;62.27
14885;BME280;7534;50.762;7.000;2022-10-30T07:31:54;151729.94;;;21.30;58.80
14885;BME280;7534;50.762;7.000;2022-10-30T07:34:20;151814.44;;;21.63;56.62
14885;BME280;7534;50.762;7.000;2022-10-30T07:36:45;151939.97;;;22.11;54.97
14885;BME280;7534;50.762;7.000;2022-10-30T07:39:11;152057.56;;;22.56;53.12
14885;BME280;7534;50.762;7.000;2022-10-30T07:41:37;152130.34;;;22.84;51.18
14885;BME280;7534;50.762;7.000;2022-10-30T07:44:03;152180.53;;;23.03;50.62
14885;BME280;7534;50.762;7.000;2022-10-30T07:46:28;152265.16;;;23.36;51.59
14885;BME280;7534;50.762;7.000;2022-10-30T07:48:54;152426.63;;;23.98;49.62
14885;BME280;7534;50.762;7.000;2022-10-30T07:51:21;152619.91;;;24.71;47.55
14885;BME280;7534;50.762;7.000;2022-10-30T07:53:47;152769.56;;;25.29;47.19
14885;BME280;7534;50.762;7.000;2022-10-30T07:56:12;152945.75;;;25.96;44.45
14885;BME280;7534;50.762;7.000;2022-10-30T07:58:38;153083.66;;;26.49;44.56
14885;BME280;7534;50.762;7.000;2022-10-30T08:01:04;153168.50;;;26.81;43.91
14885;BME280;7534;50.762;7.000;2022-10-30T08:03:33;153321.06;;;27.40;40.42
14885;BME280;7534;50.762;7.000;2022-10-30T08:06:00;153445.78;;;27.87;39.87
14885;BME280;7534;50.762;7.000;2022-10-30T08:08:26;153443.13;;;27.86;40.57
14885;BME280;7534;50.762;7.000;2022-10-30T08:10:53;153437.81;;;27.84;38.94
14885;BME280;7534;50.762;7.000;2022-10-30T08:13:19;153478.94;;;28.00;38.98
14885;BME280;7534;50.762;7.000;2022-10-30T08:15:45;153395.38;;;27.68;39.89
14885;BME280;7534;50.762;7.000;2022-10-30T08:18:10;153026.63;;;26.27;42.90
14885;BME280;7534;50.762;7.000;2022-10-30T08:20:36;152899.38;;;25.78;43.27
14885;BME280;7534;50.762;7.000;2022-10-30T08:23:02;152589.44;;;24.60;45.70
14885;BME280;7534;50.762;7.000;2022-10-30T08:25:29;152527.22;;;24.36;46.93
14885;BME280;7534;50.762;7.000;2022-10-30T08:28:05;152241.41;;;23.27;50.01
14885;BME280;7534;50.762;7.000;2022-10-30T08:30:34;152057.56;;;22.56;52.11
14885;BME280;7534;50.762;7.000;2022-10-30T08:33:04;152047.00;;;22.52;52.26
14885;BME280;7534;50.762;7.000;2022-10-30T08:35:30;151959.78;;;22.19;53.23
14885;BME280;7534;50.762;7.000;2022-10-30T08:37:58;151990.16;;;22.30;53.87
14885;BME280;7534;50.762;7.000;2022-10-30T08:40:26;152070.81;;;22.61;52.87
14885;BME280;7534;50.762;7.000;2022-10-30T08:42:54;152089.31;;;22.68;52.76
14885;BME280;7534;50.762;7.000;2022-10-30T08:45:21;152056.25;;;22.56;53.69
14885;BME280;7534;50.762;7.000;2022-10-30T08:48:00;151994.13;;;22.32;54.33
14885;BME280;7534;50.762;7.000;2022-10-30T08:50:28;151885.72;;;21.90;55.80
14885;BME280;7534;50.762;7.000;2022-10-30T08:52:54;151889.72;;;21.92;56.15
14885;BME280;7534;50.762;7.000;2022-10-30T08:55:20;152143.53;;;22.89;53.77
14885;BME280;7534;50.762;7.000;2022-10-30T08:57:47;152273.13;;;23.39;51.77
14885;BME280;7534;50.762;7.000;2022-10-30T09:00:14;152146.19;;;22.90;52.52
14885;BME280;7534;50.762;7.000;2022-10-30T09:02:41;152171.31;;;23.00;52.79
14885;BME280;7534;50.762;7.000;2022-10-30T09:05:07;152241.41;;;23.27;51.97
14885;BME280;7534;50.762;7.000;2022-10-30T09:07:34;152254.59;;;23.32;51.64
14885;BME280;7534;50.762;7.000;2022-10-30T09:10:00;152283.72;;;23.43;51.26
14885;BME280;7534;50.762;7.000;2022-10-30T09:12:26;152315.50;;;23.55;51.52
14885;BME280;7534;50.762;7.000;2022-10-30T09:14:52;152378.97;;;23.79;50.93
14885;BME280;7534;50.762;7.000;2022-10-30T09:17:22;152307.53;;;23.52;50.72
14885;BME280;7534;50.762;7.000;2022-10-30T09:19:48;152359.13;;;23.72;50.92
14885;BME280;7534;50.762;7.000;2022-10-30T09:22:13;152378.97;;;23.79;50.70
14885;BME280;7534;50.762;7.000;2022-10-30T09:24:39;152416.00;;;23.93;50.06
14885;BME280;7534;50.762;7.000;2022-10-30T09:27:06;152474.25;;;24.16;49.24
14885;BME280;7534;50.762;7.000;2022-10-30T09:29:32;152472.94;;;24.15;49.39
14885;BME280;7534;50.762;7.000;2022-10-30T09:32:00;152396.16;;;23.86;48.96
14885;BME280;7534;50.762;7.000;2022-10-30T09:34:26;152368.41;;;23.75;50.11
14885;BME280;7534;50.762;7.000;2022-10-30T09:36:52;152352.50;;;23.69;50.42
14885;BME280;7534;50.762;7.000;2022-10-30T09:39:17;152288.97;;;23.45;50.55
14885;BME280;7534;50.762;7.000;2022-10-30T09:42:28;152180.53;;;23.03;51.27
14885;BME280;7534;50.762;7.000;2022-10-30T09:48:16;152009.97;;;22.38;54.03
14885;BME280;7534;50.762;7.000;2022-10-30T09:51:20;151876.53;;;21.87;55.68
14885;BME280;7534;50.762;7.000;2022-10-30T09:54:57;151798.56;;;21.57;56.99
14885;BME280;7534;50.762;7.000;2022-10-30T09:57:47;151695.56;;;21.17;57.59
14885;BME280;7534;50.762;7.000;2022-10-30T10:00:21;151658.56;;;21.03;58.42
14885;BME280;7534;50.762;7.000;2022-10-30T10:03:04;151646.72;;;20.99;58.79
14885;BME280;7534;50.762;7.000;2022-10-30T10:05:56;151671.75;;;21.08;58.40
14885;BME280;7534;50.762;7.000;2022-10-30T10:08:47;151694.25;;;21.17;58.35
14885;BME280;7534;50.762;7.000;2022-10-30T10:11:39;151712.78;;;21.24;58.09
14885;BME280;7534;50.762;7.000;2022-10-30T10:14:28;151770.84;;;21.46;58.18
14885;BME280;7534;50.762;7.000;2022-10-30T10:16:58;151785.38;;;21.52;57.66
14885;BME280;7534;50.762;7.000;2022-10-30T10:19:36;151834.25;;;21.70;57.36
14885;BME280;7534;50.762;7.000;2022-10-30T10:22:46;151852.75;;;21.78;57.25
14885;BME280;7534;50.762;7.000;2022-10-30T10:25:13;151884.41;;;21.90;56.70
14885;BME280;7534;50.762;7.000;2022-10-30T10:30:18;151920.16;;;22.03;54.73
14885;BME280;7534;50.762;7.000;2022-10-30T10:33:17;151929.38;;;22.07;55.02
14885;BME280;7534;50.762;7.000;2022-10-30T10:36:04;151961.13;;;22.19;55.00
14885;BME280;7534;50.762;7.000;2022-10-30T10:41:35;151971.66;;;22.23;54.65
14885;BME280;7534;50.762;7.000;2022-10-30T10:44:52;152000.75;;;22.34;55.01
14885;BME280;7534;50.762;7.000;2022-10-30T10:47:54;152023.22;;;22.43;55.55
14885;BME280;7534;50.762;7.000;2022-10-30T10:50:33;152064.19;;;22.59;55.58
14885;BME280;7534;50.762;7.000;2022-10-30T10:53:10;152076.06;;;22.63;55.40
14885;BME280;7534;50.762;7.000;2022-10-30T10:55:40;152134.31;;;22.86;55.11
14885;BME280;7534;50.762;7.000;2022-10-30T10:58:50;152143.53;;;22.89;55.05
14885;BME280;7534;50.762;7.000;2022-10-30T11:01:28;152111.84;;;22.77;55.02
14885;BME280;7534;50.762;7.000;2022-10-30T11:04:04;152065.50;;;22.59;55.21
14885;BME280;7534;50.762;7.000;2022-10-30T11:06:42;152061.53;;;22.58;55.46
14885;BME280;7534;50.762;7.000;2022-10-30T11:11:42;152114.47;;;22.78;55.66
14885;BME280;7534;50.762;7.000;2022-10-30T11:14:15;152144.84;;;22.90;54.71
14885;BME280;7534;50.762;7.000;2022-10-30T11:16:58;152150.16;;;22.92;54.35
14885;BME280;7534;50.762;7.000;2022-10-30T11:19:27;152164.69;;;22.97;54.30
14885;BME280;7534;50.762;7.000;2022-10-30T11:21:56;152180.53;;;23.03;54.05
14885;BME280;7534;50.762;7.000;2022-10-30T11:24:34;152189.81;;;23.07;53.89
14885;BME280;7534;50.762;7.000;2022-10-30T11:27:27;152212.28;;;23.15;53.86
14885;BME280;7534;50.762;7.000;2022-10-30T11:30:04;152196.44;;;23.09;53.94
14885;BME280;7534;50.762;7.000;2022-10-30T11:32:33;152212.28;;;23.15;53.70
14885;BME280;7534;50.762;7.000;2022-10-30T11:37:40;152291.63;;;23.46;52.94
14885;BME280;7534;50.762;7.000;2022-10-30T11:42:37;152320.78;;;23.57;51.63
14885;BME280;7534;50.762;7.000;2022-10-30T11:45:13;152341.94;;;23.65;51.57
14885;BME280;7534;50.762;7.000;2022-10-30T11:47:40;152345.94;;;23.67;51.85
14885;BME280;7534;50.762;7.000;2022-10-30T11:50:25;152327.38;;;23.59;51.86
14885;BME280;7534;50.762;7.000;2022-10-30T11:53:11;152360.47;;;23.72;51.56
14885;BME280;7534;50.762;7.000;2022-10-30T11:55:44;152359.13;;;23.72;50.35
14885;BME280;7534;50.762;7.000;2022-10-30T11:58:23;152331.34;;;23.61;50.81
14885;BME280;7534;50.762;7.000;2022-10-30T12:01:28;152363.13;;;23.73;50.59
14885;BME280;7534;50.762;7.000;2022-10-30T12:03:56;152406.78;;;23.90;50.29
14885;BME280;7534;50.762;7.000;2022-10-30T12:06:37;152545.75;;;24.43;49.33
14885;BME280;7534;50.762;7.000;2022-10-30T12:09:13;152631.78;;;24.76;47.89
14885;BME280;7534;50.762;7.000;2022-10-30T12:11:41;152597.38;;;24.63;48.12
14885;BME280;7534;50.762;7.000;2022-10-30T12:14:20;152551.03;;;24.45;48.74
14885;BME280;7534;50.762;7.000;2022-10-30T12:16:52;152552.38;;;24.46;48.70
14885;BME280;7534;50.762;7.000;2022-10-30T12:19:22;152562.94;;;24.50;48.78
14885;BME280;7534;50.762;7.000;2022-10-30T12:21:54;152560.28;;;24.49;47.62
14885;BME280;7534;50.762;7.000;2022-10-30T12:24:36;152564.25;;;24.50;47.74
14885;BME280;7534;50.762;7.000;2022-10-30T12:27:10;152666.19;;;24.89;46.79
14885;BME280;7534;50.762;7.000;2022-10-30T12:30:18;152589.44;;;24.60;47.34
14885;BME280;7534;50.762;7.000;2022-10-30T12:33:17;152565.59;;;24.51;47.62
14885;BME280;7534;50.762;7.000;2022-10-30T12:35:57;152545.75;;;24.43;47.61
14885;BME280;7534;50.762;7.000;2022-10-30T12:44:01;152570.91;;;24.53;48.47
14885;BME280;7534;50.762;7.000;2022-10-30T12:49:49;152548.41;;;24.44;48.99
14885;BME280;7534;50.762;7.000;2022-10-30T12:52:34;152561.63;;;24.49;48.43
14885;BME280;7534;50.762;7.000;2022-10-30T12:55:42;152531.19;;;24.38;49.62
14885;BME280;7534;50.762;7.000;2022-10-30T12:58:27;152479.50;;;24.18;50.42
14885;BME280;7534;50.762;7.000;2022-10-30T13:01:06;152474.25;;;24.16;51.21
14885;BME280;7534;50.762;7.000;2022-10-30T13:04:04;152502.06;;;24.26;51.28
14885;BME280;7534;50.762;7.000;2022-10-30T13:06:54;152421.31;;;23.95;52.49
14885;BME280;7534;50.762;7.000;2022-10-30T13:09:35;152453.09;;;24.08;51.98
14885;BME280;7534;50.762;7.000;2022-10-30T13:12:11;152445.13;;;24.05;51.64
14885;BME280;7534;50.762;7.000;2022-10-30T13:15:00;152430.59;;;23.99;51.64
14885;BME280;7534;50.762;7.000;2022-10-30T13:17:28;152421.31;;;23.95;51.71
14885;BME280;7534;50.762;7.000;2022-10-30T13:19:54;152381.63;;;23.80;51.97
14885;BME280;7534;50.762;7.000;2022-10-30T13:22:44;152365.78;;;23.74;51.73
14885;BME280;7534;50.762;7.000;2022-10-30T13:25:35;152357.81;;;23.71;51.89
14885;BME280;7534;50.762;7.000;2022-10-30T13:28:54;152353.84;;;23.70;51.17
14885;BME280;7534;50.762;7.000;2022-10-30T13:34:53;152330.03;;;23.61;52.39
14885;BME280;7534;50.762;7.000;2022-10-30T13:37:42;152294.28;;;23.47;52.92
14885;BME280;7534;50.762;7.000;2022-10-30T13:43:36;152341.94;;;23.65;52.83
14885;BME280;7534;50.762;7.000;2022-10-30T13:49:37;152381.63;;;23.80;52.37
14885;BME280;7534;50.762;7.000;2022-10-30T13:52:14;152365.78;;;23.74;50.87
14885;BME280;7534;50.762;7.000;2022-10-30T13:55:08;152344.59;;;23.66;50.70
14885;BME280;7534;50.762;7.000;2022-10-30T14:00:46;152266.47;;;23.36;47.38
14885;BME280;7534;50.762;7.000;2022-10-30T14:03:19;152228.16;;;23.21;47.13
14885;BME280;7534;50.762;7.000;2022-10-30T14:08:52;152183.19;;;23.04;46.10
14885;BME280;7534;50.762;7.000;2022-10-30T14:11:21;152156.78;;;22.94;45.21
14885;BME280;7534;50.762;7.000;2022-10-30T14:13:55;152130.34;;;22.84;45.37
14885;BME280;7534;50.762;7.000;2022-10-30T14:16:44;152109.19;;;22.76;44.55
14885;BME280;7534;50.762;7.000;2022-10-30T14:19:16;152098.53;;;22.72;44.76
14885;BME280;7534;50.762;7.000;2022-10-30T14:21:51;152114.47;;;22.78;44.42